sensor_id;sensor_type;location;lat;lon;timestamp;P1;durP1;ratioP1;P2;durP2;ratioP2
505;SDS011;551;48.524;9.056;2023-02-28T00:02:15;3.30;;;2.13;;
505;SDS011;551;48.524;9.056;2023-02-28T00:04:42;3.77;;;2.70;;
505;SDS011;551;48.524;9.056;2023-02-28T00:07:08;9.60;;;2.80;;
505;SDS011;551;48.524;9.056;2023-02-28T00:09:34;7.73;;;2.57;;
505;SDS011;551;48.524;9.056;2023-02-28T00:11:59;3.60;;;2.87;;
505;SDS011;551;48.524;9.056;2023-02-28T00:14:25;3.37;;;2.60;;
505;SDS011;551;48.524;9.056;2023-02-28T00:16:50;3.80;;;2.97;;
505;SDS011;551;48.524;9.056;2023-02-28T00:19:16;3.93;;;2.43;;
505;SDS011;551;48.524;9.056;2023-02-28T00:21:41;2.97;;;2.63;;
505;SDS011;551;48.524;9.056;2023-02-28T00:24:07;6.03;;;2.70;;
505;SDS011;551;48.524;9.056;2023-02-28T00:26:33;2.50;;;2.30;;
505;SDS011;551;48.524;9.056;2023-02-28T00:28:58;3.40;;;2.80;;
505;SDS011;551;48.524;9.056;2023-02-28T00:31:24;2.53;;;2.33;;
505;SDS011;551;48.524;9.056;2023-02-28T00:33:49;3.40;;;2.60;;
505;SDS011;551;48.524;9.056;2023-02-28T00:36:16;4.90;;;3.00;;
505;SDS011;551;48.524;9.056;2023-02-28T00:38:42;4.73;;;2.50;;
505;SDS011;551;48.524;9.056;2023-02-28T00:41:07;5.40;;;2.40;;
505;SDS011;551;48.524;9.056;2023-02-28T00:43:34;2.70;;;2.50;;
505;SDS011;551;48.524;9.056;2023-02-28T00:46:02;4.20;;;3.07;;
505;SDS011;551;48.524;9.056;2023-02-28T00:48:28;5.60;;;3.10;;
505;SDS011;551;48.524;9.056;2023-02-28T00:50:53;2.63;;;2.30;;
505;SDS011;551;48.524;9.056;2023-02-28T00:53:19;3.90;;;3.53;;
505;SDS011;551;48.524;9.056;2023-02-28T00:55:45;3.17;;;2.30;;
505;SDS011;551;48.524;9.056;2023-02-28T00:58:11;3.17;;;2.93;;
505;SDS011;551;48.524;9.056;2023-02-28T01:00:36;6.03;;;3.00;;
505;SDS011;551;48.524;9.056;2023-02-28T01:03:02;4.37;;;2.97;;
505;SDS011;551;48.524;9.056;2023-02-28T01:05:27;3.30;;;2.50;;
505;SDS011;551;48.524;9.056;2023-02-28T01:07:53;3.70;;;2.67;;
505;SDS011;551;48.524;9.056;2023-02-28T01:10:18;4.33;;;2.60;;
505;SDS011;551;48.524;9.056;2023-02-28T01:12:45;3.50;;;3.20;;
505;SDS011;551;48.524;9.056;2023-02-28T01:15:11;3.40;;;3.10;;
505;SDS011;551;48.524;9.056;2023-02-28T01:17:36;3.00;;;2.73;;
505;SDS011;551;48.524;9.056;2023-02-28T01:20:02;3.60;;;3.07;;
505;SDS011;551;48.524;9.056;2023-02-28T01:22:28;2.80;;;2.10;;
505;SDS011;551;48.524;9.056;2023-02-28T01:24:54;3.20;;;2.60;;
505;SDS011;551;48.524;9.056;2023-02-28T01:27:19;3.30;;;2.93;;
505;SDS011;551;48.524;9.056;2023-02-28T01:29:45;6.13;;;3.10;;
505;SDS011;551;48.524;9.056;2023-02-28T01:32:11;3.30;;;2.73;;
505;SDS011;551;48.524;9.056;2023-02-28T01:34:36;3.03;;;2.80;;
505;SDS011;551;48.524;9.056;2023-02-28T01:37:02;3.50;;;2.93;;
505;SDS011;551;48.524;9.056;2023-02-28T01:39:28;3.30;;;3.00;;
505;SDS011;551;48.524;9.056;2023-02-28T01:41:54;8.30;;;2.97;;
505;SDS011;551;48.524;9.056;2023-02-28T01:47:23;4.77;;;2.87;;
505;SDS011;551;48.524;9.056;2023-02-28T01:49:55;4.63;;;2.80;;
505;SDS011;551;48.524;9.056;2023-02-28T01:52:22;4.63;;;2.43;;
505;SDS011;551;48.524;9.056;2023-02-28T01:54:50;7.33;;;2.90;;
505;SDS011;551;48.524;9.056;2023-02-28T01:57:19;3.70;;;2.30;;
505;SDS011;551;48.524;9.056;2023-02-28T02:02:20;4.30;;;3.10;;
505;SDS011;551;48.524;9.056;2023-02-28T02:04:58;3.50;;;3.20;;
505;SDS011;551;48.524;9.056;2023-02-28T02:07:32;5.03;;;2.93;;
505;SDS011;551;48.524;9.056;2023-02-28T02:10:16;3.60;;;3.30;;
505;SDS011;551;48.524;9.056;2023-02-28T02:15:20;3.83;;;2.90;;
505;SDS011;551;48.524;9.056;2023-02-28T02:23:43;3.47;;;3.17;;
505;SDS011;551;48.524;9.056;2023-02-28T02:32:16;8.20;;;3.50;;
505;SDS011;551;48.524;9.056;2023-02-28T02:37:55;9.63;;;4.37;;
505;SDS011;551;48.524;9.056;2023-02-28T02:41:08;5.00;;;2.60;;
505;SDS011;551;48.524;9.056;2023-02-28T02:43:29;4.00;;;3.13;;
505;SDS011;551;48.524;9.056;2023-02-28T02:46:02;5.10;;;3.40;;
505;SDS011;551;48.524;9.056;2023-02-28T02:48:34;5.20;;;4.00;;
505;SDS011;551;48.524;9.056;2023-02-28T02:51:04;7.37;;;3.77;;
505;SDS011;551;48.524;9.056;2023-02-28T02:53:38;3.67;;;2.70;;
505;SDS011;551;48.524;9.056;2023-02-28T02:56:28;4.10;;;3.60;;
505;SDS011;551;48.524;9.056;2023-02-28T02:58:59;3.30;;;2.93;;
505;SDS011;551;48.524;9.056;2023-02-28T03:01:28;4.67;;;3.70;;
505;SDS011;551;48.524;9.056;2023-02-28T03:03:57;4.10;;;2.80;;
505;SDS011;551;48.524;9.056;2023-02-28T03:06:25;7.23;;;3.53;;
505;SDS011;551;48.524;9.056;2023-02-28T03:08:51;4.07;;;3.67;;
505;SDS011;551;48.524;9.056;2023-02-28T03:11:17;3.23;;;3.00;;
505;SDS011;551;48.524;9.056;2023-02-28T03:13:52;4.03;;;3.37;;
505;SDS011;551;48.524;9.056;2023-02-28T03:24:41;6.90;;;3.40;;
505;SDS011;551;48.524;9.056;2023-02-28T03:27:16;7.13;;;3.90;;
505;SDS011;551;48.524;9.056;2023-02-28T03:30:03;3.60;;;2.70;;
505;SDS011;551;48.524;9.056;2023-02-28T03:32:50;5.20;;;3.70;;
505;SDS011;551;48.524;9.056;2023-02-28T03:35:32;4.50;;;3.17;;
505;SDS011;551;48.524;9.056;2023-02-28T03:38:24;4.60;;;3.50;;
505;SDS011;551;48.524;9.056;2023-02-28T03:41:13;3.93;;;3.33;;
505;SDS011;551;48.524;9.056;2023-02-28T03:43:45;3.77;;;3.40;;
505;SDS011;551;48.524;9.056;2023-02-28T03:46:20;6.57;;;4.23;;
505;SDS011;551;48.524;9.056;2023-02-28T03:49:13;5.93;;;3.97;;
505;SDS011;551;48.524;9.056;2023-02-28T03:51:48;4.33;;;3.47;;
505;SDS011;551;48.524;9.056;2023-02-28T03:54:16;4.27;;;3.57;;
505;SDS011;551;48.524;9.056;2023-02-28T03:56:48;4.93;;;3.73;;
505;SDS011;551;48.524;9.056;2023-02-28T03:59:42;5.63;;;4.23;;
505;SDS011;551;48.524;9.056;2023-02-28T04:02:10;5.20;;;3.60;;
505;SDS011;551;48.524;9.056;2023-02-28T04:04:36;4.37;;;3.50;;
505;SDS011;551;48.524;9.056;2023-02-28T04:07:03;5.90;;;3.97;;
505;SDS011;551;48.524;9.056;2023-02-28T04:09:31;3.50;;;3.20;;
505;SDS011;551;48.524;9.056;2023-02-28T04:11:56;5.53;;;3.87;;
505;SDS011;551;48.524;9.056;2023-02-28T04:14:22;5.30;;;3.63;;
505;SDS011;551;48.524;9.056;2023-02-28T04:16:48;5.07;;;3.83;;
505;SDS011;551;48.524;9.056;2023-02-28T04:19:15;5.40;;;3.20;;
505;SDS011;551;48.524;9.056;2023-02-28T04:21:42;4.87;;;4.23;;
505;SDS011;551;48.524;9.056;2023-02-28T04:24:10;4.70;;;3.77;;
505;SDS011;551;48.524;9.056;2023-02-28T04:26:42;8.90;;;4.00;;
505;SDS011;551;48.524;9.056;2023-02-28T04:29:10;6.27;;;4.27;;
505;SDS011;551;48.524;9.056;2023-02-28T04:31:37;5.57;;;4.20;;
505;SDS011;551;48.524;9.056;2023-02-28T04:34:03;5.57;;;4.20;;
505;SDS011;551;48.524;9.056;2023-02-28T04:36:28;9.60;;;4.30;;
505;SDS011;551;48.524;9.056;2023-02-28T04:38:54;4.13;;;3.50;;
505;SDS011;551;48.524;9.056;2023-02-28T04:41:20;6.23;;;3.60;;
505;SDS011;551;48.524;9.056;2023-02-28T04:43:46;5.93;;;3.97;;
505;SDS011;551;48.524;9.056;2023-02-28T04:46:12;6.40;;;3.90;;
505;SDS011;551;48.524;9.056;2023-02-28T04:48:38;4.70;;;4.10;;
505;SDS011;551;48.524;9.056;2023-02-28T04:51:05;5.77;;;3.97;;
505;SDS011;551;48.524;9.056;2023-02-28T04:53:33;12.53;;;4.17;;
505;SDS011;551;48.524;9.056;2023-02-28T04:55:59;5.43;;;4.33;;
505;SDS011;551;48.524;9.056;2023-02-28T04:58:25;4.53;;;3.70;;
505;SDS011;551;48.524;9.056;2023-02-28T05:00:51;6.10;;;4.00;;
505;SDS011;551;48.524;9.056;2023-02-28T05:03:17;4.47;;;3.57;;
505;SDS011;551;48.524;9.056;2023-02-28T05:05:43;13.53;;;4.70;;
505;SDS011;551;48.524;9.056;2023-02-28T05:08:09;6.30;;;4.40;;
505;SDS011;551;48.524;9.056;2023-02-28T05:10:36;4.93;;;4.47;;
505;SDS011;551;48.524;9.056;2023-02-28T05:13:02;7.37;;;4.73;;
505;SDS011;551;48.524;9.056;2023-02-28T05:15:27;5.30;;;4.10;;
505;SDS011;551;48.524;9.056;2023-02-28T05:17:53;5.30;;;4.20;;
505;SDS011;551;48.524;9.056;2023-02-28T05:20:19;5.63;;;4.03;;
505;SDS011;551;48.524;9.056;2023-02-28T05:22:45;5.90;;;4.43;;
505;SDS011;551;48.524;9.056;2023-02-28T05:25:18;8.70;;;5.20;;
505;SDS011;551;48.524;9.056;2023-02-28T05:27:46;6.13;;;4.97;;
505;SDS011;551;48.524;9.056;2023-02-28T05:30:12;5.50;;;3.87;;
505;SDS011;551;48.524;9.056;2023-02-28T05:32:38;6.40;;;4.37;;
505;SDS011;551;48.524;9.056;2023-02-28T05:35:07;5.90;;;4.67;;
505;SDS011;551;48.524;9.056;2023-02-28T05:37:35;5.27;;;4.77;;
505;SDS011;551;48.524;9.056;2023-02-28T05:40:00;6.03;;;4.20;;
505;SDS011;551;48.524;9.056;2023-02-28T05:42:26;4.20;;;3.80;;
505;SDS011;551;48.524;9.056;2023-02-28T05:44:52;6.70;;;5.37;;
505;SDS011;551;48.524;9.056;2023-02-28T05:47:17;5.77;;;4.10;;
505;SDS011;551;48.524;9.056;2023-02-28T05:49:43;6.87;;;6.00;;
505;SDS011;551;48.524;9.056;2023-02-28T05:52:08;8.87;;;5.37;;
505;SDS011;551;48.524;9.056;2023-02-28T05:54:34;6.13;;;4.47;;
505;SDS011;551;48.524;9.056;2023-02-28T05:56:59;7.10;;;4.93;;
505;SDS011;551;48.524;9.056;2023-02-28T05:59:25;6.60;;;4.77;;
505;SDS011;551;48.524;9.056;2023-02-28T06:01:50;7.23;;;5.23;;
505;SDS011;551;48.524;9.056;2023-02-28T06:04:18;5.47;;;4.57;;
505;SDS011;551;48.524;9.056;2023-02-28T06:06:45;9.20;;;5.20;;
505;SDS011;551;48.524;9.056;2023-02-28T06:09:14;6.97;;;4.70;;
505;SDS011;551;48.524;9.056;2023-02-28T06:11:40;7.77;;;5.67;;
505;SDS011;551;48.524;9.056;2023-02-28T06:14:06;5.37;;;4.50;;
505;SDS011;551;48.524;9.056;2023-02-28T06:16:33;8.60;;;5.47;;
505;SDS011;551;48.524;9.056;2023-02-28T06:19:00;7.63;;;5.20;;
505;SDS011;551;48.524;9.056;2023-02-28T06:21:27;12.97;;;5.67;;
505;SDS011;551;48.524;9.056;2023-02-28T06:23:54;8.73;;;5.10;;
505;SDS011;551;48.524;9.056;2023-02-28T06:26:21;5.93;;;4.67;;
505;SDS011;551;48.524;9.056;2023-02-28T06:28:46;10.10;;;5.60;;
505;SDS011;551;48.524;9.056;2023-02-28T06:31:13;6.70;;;5.43;;
505;SDS011;551;48.524;9.056;2023-02-28T06:33:41;8.87;;;5.73;;
505;SDS011;551;48.524;9.056;2023-02-28T06:36:07;7.10;;;5.57;;
505;SDS011;551;48.524;9.056;2023-02-28T06:38:34;10.37;;;4.57;;
505;SDS011;551;48.524;9.056;2023-02-28T06:41:00;6.87;;;5.07;;
505;SDS011;551;48.524;9.056;2023-02-28T06:43:30;5.90;;;5.30;;
505;SDS011;551;48.524;9.056;2023-02-28T06:45:58;11.57;;;5.47;;
505;SDS011;551;48.524;9.056;2023-02-28T06:48:25;8.50;;;5.37;;
505;SDS011;551;48.524;9.056;2023-02-28T06:50:51;8.17;;;5.53;;
505;SDS011;551;48.524;9.056;2023-02-28T06:53:17;12.20;;;6.07;;
505;SDS011;551;48.524;9.056;2023-02-28T06:55:43;7.40;;;6.13;;
505;SDS011;551;48.524;9.056;2023-02-28T06:58:08;6.27;;;5.67;;
505;SDS011;551;48.524;9.056;2023-02-28T07:00:44;8.63;;;6.10;;
505;SDS011;551;48.524;9.056;2023-02-28T07:03:10;10.40;;;6.70;;
505;SDS011;551;48.524;9.056;2023-02-28T07:05:37;6.80;;;6.20;;
505;SDS011;551;48.524;9.056;2023-02-28T07:08:04;10.10;;;5.70;;
505;SDS011;551;48.524;9.056;2023-02-28T07:10:30;8.53;;;5.83;;
505;SDS011;551;48.524;9.056;2023-02-28T07:12:57;6.47;;;5.77;;
505;SDS011;551;48.524;9.056;2023-02-28T07:15:23;8.80;;;6.43;;
505;SDS011;551;48.524;9.056;2023-02-28T07:17:49;13.40;;;7.40;;
505;SDS011;551;48.524;9.056;2023-02-28T07:20:15;7.07;;;5.63;;
505;SDS011;551;48.524;9.056;2023-02-28T07:22:40;6.43;;;5.70;;
505;SDS011;551;48.524;9.056;2023-02-28T07:25:06;9.77;;;6.17;;
505;SDS011;551;48.524;9.056;2023-02-28T07:27:32;6.63;;;5.90;;
505;SDS011;551;48.524;9.056;2023-02-28T07:29:59;6.37;;;5.73;;
505;SDS011;551;48.524;9.056;2023-02-28T07:32:26;11.10;;;6.23;;
505;SDS011;551;48.524;9.056;2023-02-28T07:34:52;11.40;;;6.80;;
505;SDS011;551;48.524;9.056;2023-02-28T07:37:18;14.73;;;6.60;;
505;SDS011;551;48.524;9.056;2023-02-28T07:39:43;8.80;;;6.20;;
505;SDS011;551;48.524;9.056;2023-02-28T07:42:09;9.37;;;7.07;;
505;SDS011;551;48.524;9.056;2023-02-28T07:44:37;13.13;;;7.20;;
505;SDS011;551;48.524;9.056;2023-02-28T07:47:06;8.90;;;6.07;;
505;SDS011;551;48.524;9.056;2023-02-28T07:49:32;10.03;;;7.47;;
505;SDS011;551;48.524;9.056;2023-02-28T07:51:59;11.33;;;6.90;;
505;SDS011;551;48.524;9.056;2023-02-28T07:54:24;10.15;;;7.88;;
505;SDS011;551;48.524;9.056;2023-02-28T07:56:50;10.20;;;7.33;;
505;SDS011;551;48.524;9.056;2023-02-28T07:59:15;12.70;;;7.70;;
505;SDS011;551;48.524;9.056;2023-02-28T08:01:41;7.80;;;6.50;;
505;SDS011;551;48.524;9.056;2023-02-28T08:04:06;15.40;;;7.63;;
505;SDS011;551;48.524;9.056;2023-02-28T08:06:32;10.07;;;6.83;;
505;SDS011;551;48.524;9.056;2023-02-28T08:08:57;10.10;;;6.10;;
505;SDS011;551;48.524;9.056;2023-02-28T08:11:23;12.30;;;7.50;;
505;SDS011;551;48.524;9.056;2023-02-28T08:13:48;12.00;;;8.10;;
505;SDS011;551;48.524;9.056;2023-02-28T08:16:14;10.10;;;7.30;;
505;SDS011;551;48.524;9.056;2023-02-28T08:18:42;7.33;;;6.20;;
505;SDS011;551;48.524;9.056;2023-02-28T08:21:08;9.83;;;7.07;;
505;SDS011;551;48.524;9.056;2023-02-28T08:23:35;11.00;;;6.90;;
505;SDS011;551;48.524;9.056;2023-02-28T08:26:01;10.80;;;7.80;;
505;SDS011;551;48.524;9.056;2023-02-28T08:28:27;11.03;;;7.40;;
505;SDS011;551;48.524;9.056;2023-02-28T08:30:52;9.60;;;7.70;;
505;SDS011;551;48.524;9.056;2023-02-28T08:33:18;10.47;;;7.03;;
505;SDS011;551;48.524;9.056;2023-02-28T08:35:44;14.33;;;7.80;;
505;SDS011;551;48.524;9.056;2023-02-28T08:38:09;11.60;;;8.07;;
505;SDS011;551;48.524;9.056;2023-02-28T08:40:35;9.77;;;7.03;;
505;SDS011;551;48.524;9.056;2023-02-28T08:43:00;8.70;;;7.03;;
505;SDS011;551;48.524;9.056;2023-02-28T08:45:26;15.50;;;7.80;;
505;SDS011;551;48.524;9.056;2023-02-28T08:47:51;11.80;;;7.77;;
505;SDS011;551;48.524;9.056;2023-02-28T08:50:19;8.87;;;7.90;;
505;SDS011;551;48.524;9.056;2023-02-28T08:52:44;13.93;;;8.43;;
505;SDS011;551;48.524;9.056;2023-02-28T08:55:10;11.53;;;8.30;;
505;SDS011;551;48.524;9.056;2023-02-28T08:57:35;12.83;;;7.90;;
505;SDS011;551;48.524;9.056;2023-02-28T09:00:02;12.30;;;7.70;;
505;SDS011;551;48.524;9.056;2023-02-28T09:02:29;10.83;;;7.60;;
505;SDS011;551;48.524;9.056;2023-02-28T09:04:56;11.07;;;8.20;;
505;SDS011;551;48.524;9.056;2023-02-28T09:07:22;8.17;;;7.37;;
505;SDS011;551;48.524;9.056;2023-02-28T09:09:48;11.57;;;8.10;;
505;SDS011;551;48.524;9.056;2023-02-28T09:12:23;12.40;;;8.90;;
505;SDS011;551;48.524;9.056;2023-02-28T09:14:50;9.30;;;7.40;;
505;SDS011;551;48.524;9.056;2023-02-28T09:17:16;11.23;;;7.53;;
505;SDS011;551;48.524;9.056;2023-02-28T09:19:42;11.70;;;7.93;;
505;SDS011;551;48.524;9.056;2023-02-28T09:22:07;14.53;;;7.87;;
505;SDS011;551;48.524;9.056;2023-02-28T09:24:34;10.73;;;8.17;;
505;SDS011;551;48.524;9.056;2023-02-28T09:27:01;9.13;;;7.53;;
505;SDS011;551;48.524;9.056;2023-02-28T09:29:26;12.80;;;8.90;;
505;SDS011;551;48.524;9.056;2023-02-28T09:31:52;12.33;;;8.90;;
505;SDS011;551;48.524;9.056;2023-02-28T09:34:17;9.40;;;7.17;;
505;SDS011;551;48.524;9.056;2023-02-28T09:36:43;13.03;;;7.83;;
505;SDS011;551;48.524;9.056;2023-02-28T09:39:08;10.70;;;8.17;;
505;SDS011;551;48.524;9.056;2023-02-28T09:41:44;10.03;;;7.87;;
505;SDS011;551;48.524;9.056;2023-02-28T09:44:35;10.40;;;8.20;;
505;SDS011;551;48.524;9.056;2023-02-28T09:47:23;14.20;;;8.13;;
505;SDS011;551;48.524;9.056;2023-02-28T09:50:17;11.80;;;8.10;;
505;SDS011;551;48.524;9.056;2023-02-28T09:52:58;11.43;;;8.90;;
505;SDS011;551;48.524;9.056;2023-02-28T09:55:30;13.03;;;6.87;;
505;SDS011;551;48.524;9.056;2023-02-28T09:58:01;10.43;;;7.80;;
505;SDS011;551;48.524;9.056;2023-02-28T10:00:30;9.23;;;7.70;;
505;SDS011;551;48.524;9.056;2023-02-28T10:03:14;11.70;;;8.70;;
505;SDS011;551;48.524;9.056;2023-02-28T10:05:50;15.80;;;8.73;;
505;SDS011;551;48.524;9.056;2023-02-28T10:08:23;9.80;;;7.40;;
505;SDS011;551;48.524;9.056;2023-02-28T10:10:57;9.90;;;8.07;;
505;SDS011;551;48.524;9.056;2023-02-28T10:13:48;12.37;;;9.07;;
505;SDS011;551;48.524;9.056;2023-02-28T10:16:31;10.37;;;7.10;;
505;SDS011;551;48.524;9.056;2023-02-28T10:19:16;9.83;;;7.70;;
505;SDS011;551;48.524;9.056;2023-02-28T10:22:01;11.60;;;8.50;;
505;SDS011;551;48.524;9.056;2023-02-28T10:24:43;8.70;;;7.87;;
505;SDS011;551;48.524;9.056;2023-02-28T10:29:46;14.17;;;9.00;;
505;SDS011;551;48.524;9.056;2023-02-28T10:32:15;11.77;;;9.07;;
505;SDS011;551;48.524;9.056;2023-02-28T10:34:43;12.77;;;7.77;;
505;SDS011;551;48.524;9.056;2023-02-28T10:37:10;11.85;;;9.90;;
505;SDS011;551;48.524;9.056;2023-02-28T10:39:39;9.90;;;8.90;;
505;SDS011;551;48.524;9.056;2023-02-28T10:42:18;12.00;;;8.23;;
505;SDS011;551;48.524;9.056;2023-02-28T10:45:04;11.23;;;9.40;;
505;SDS011;551;48.524;9.056;2023-02-28T10:47:41;10.67;;;7.57;;
505;SDS011;551;48.524;9.056;2023-02-28T10:50:26;10.20;;;7.90;;
505;SDS011;551;48.524;9.056;2023-02-28T10:55:55;9.50;;;8.50;;
505;SDS011;551;48.524;9.056;2023-02-28T11:01:13;12.33;;;7.50;;
505;SDS011;551;48.524;9.056;2023-02-28T11:03:40;13.77;;;9.13;;
505;SDS011;551;48.524;9.056;2023-02-28T11:06:07;13.40;;;7.73;;
505;SDS011;551;48.524;9.056;2023-02-28T11:08:46;11.00;;;7.53;;
505;SDS011;551;48.524;9.056;2023-02-28T11:11:19;11.50;;;7.10;;
505;SDS011;551;48.524;9.056;2023-02-28T11:13:46;9.93;;;7.87;;
505;SDS011;551;48.524;9.056;2023-02-28T11:16:15;10.00;;;7.53;;
505;SDS011;551;48.524;9.056;2023-02-28T11:21:08;10.70;;;8.43;;
505;SDS011;551;48.524;9.056;2023-02-28T11:23:41;9.23;;;7.80;;
505;SDS011;551;48.524;9.056;2023-02-28T11:26:07;8.10;;;6.83;;
505;SDS011;551;48.524;9.056;2023-02-28T11:28:37;10.83;;;8.10;;
505;SDS011;551;48.524;9.056;2023-02-28T11:36:19;11.80;;;7.43;;
505;SDS011;551;48.524;9.056;2023-02-28T11:38:46;12.70;;;8.27;;
505;SDS011;551;48.524;9.056;2023-02-28T11:43:55;9.67;;;7.50;;
505;SDS011;551;48.524;9.056;2023-02-28T11:46:39;9.50;;;8.47;;
505;SDS011;551;48.524;9.056;2023-02-28T11:57:52;9.43;;;8.30;;
505;SDS011;551;48.524;9.056;2023-02-28T12:00:38;10.53;;;8.97;;
505;SDS011;551;48.524;9.056;2023-02-28T12:05:58;9.97;;;7.97;;
505;SDS011;551;48.524;9.056;2023-02-28T12:08:44;12.10;;;9.67;;
505;SDS011;551;48.524;9.056;2023-02-28T12:12:07;10.07;;;8.50;;
505;SDS011;551;48.524;9.056;2023-02-28T12:14:22;12.20;;;9.27;;
505;SDS011;551;48.524;9.056;2023-02-28T12:17:13;14.43;;;9.20;;
505;SDS011;551;48.524;9.056;2023-02-28T12:27:38;10.00;;;8.80;;
505;SDS011;551;48.524;9.056;2023-02-28T12:30:16;9.37;;;8.10;;
505;SDS011;551;48.524;9.056;2023-02-28T12:32:56;10.87;;;8.77;;
505;SDS011;551;48.524;9.056;2023-02-28T12:35:37;10.13;;;9.00;;
505;SDS011;551;48.524;9.056;2023-02-28T12:38:19;11.03;;;9.27;;
505;SDS011;551;48.524;9.056;2023-02-28T12:40:53;13.10;;;8.60;;
505;SDS011;551;48.524;9.056;2023-02-28T12:43:45;10.63;;;9.30;;
505;SDS011;551;48.524;9.056;2023-02-28T12:46:22;10.37;;;8.67;;
505;SDS011;551;48.524;9.056;2023-02-28T12:48:55;10.70;;;8.03;;
505;SDS011;551;48.524;9.056;2023-02-28T12:51:24;10.30;;;7.10;;
505;SDS011;551;48.524;9.056;2023-02-28T13:08:21;9.77;;;8.77;;
505;SDS011;551;48.524;9.056;2023-02-28T13:11:07;10.57;;;8.50;;
505;SDS011;551;48.524;9.056;2023-02-28T13:13:55;11.07;;;8.90;;
505;SDS011;551;48.524;9.056;2023-02-28T13:16:22;9.77;;;8.87;;
505;SDS011;551;48.524;9.056;2023-02-28T13:18:48;10.27;;;8.60;;
505;SDS011;551;48.524;9.056;2023-02-28T13:21:24;9.10;;;8.30;;
505;SDS011;551;48.524;9.056;2023-02-28T13:28:59;11.50;;;9.50;;
505;SDS011;551;48.524;9.056;2023-02-28T13:31:29;12.50;;;9.30;;
505;SDS011;551;48.524;9.056;2023-02-28T13:36:30;9.40;;;8.50;;
505;SDS011;551;48.524;9.056;2023-02-28T13:39:00;10.30;;;9.40;;
505;SDS011;551;48.524;9.056;2023-02-28T13:46:34;11.53;;;9.33;;
505;SDS011;551;48.524;9.056;2023-02-28T13:57:50;11.37;;;8.70;;
505;SDS011;551;48.524;9.056;2023-02-28T14:00:53;12.90;;;9.73;;
505;SDS011;551;48.524;9.056;2023-02-28T14:06:09;11.83;;;9.80;;
505;SDS011;551;48.524;9.056;2023-02-28T14:08:52;10.53;;;9.43;;
505;SDS011;551;48.524;9.056;2023-02-28T14:11:32;14.90;;;9.90;;
505;SDS011;551;48.524;9.056;2023-02-28T14:13:59;11.80;;;9.67;;
505;SDS011;551;48.524;9.056;2023-02-28T14:16:27;13.00;;;10.83;;
505;SDS011;551;48.524;9.056;2023-02-28T14:19:24;13.63;;;9.93;;
505;SDS011;551;48.524;9.056;2023-02-28T14:30:03;16.10;;;10.90;;
505;SDS011;551;48.524;9.056;2023-02-28T14:35:05;9.37;;;8.37;;
505;SDS011;551;48.524;9.056;2023-02-28T14:38:02;10.30;;;8.80;;
505;SDS011;551;48.524;9.056;2023-02-28T14:40:34;10.73;;;9.07;;
505;SDS011;551;48.524;9.056;2023-02-28T14:43:03;15.33;;;9.30;;
505;SDS011;551;48.524;9.056;2023-02-28T14:45:31;11.90;;;8.87;;
505;SDS011;551;48.524;9.056;2023-02-28T14:47:58;12.03;;;9.40;;
505;SDS011;551;48.524;9.056;2023-02-28T14:50:27;13.27;;;9.87;;
505;SDS011;551;48.524;9.056;2023-02-28T14:52:59;12.70;;;9.53;;
505;SDS011;551;48.524;9.056;2023-02-28T14:55:29;13.67;;;8.80;;
505;SDS011;551;48.524;9.056;2023-02-28T14:58:01;11.90;;;8.20;;
505;SDS011;551;48.524;9.056;2023-02-28T15:00:36;11.50;;;9.43;;
505;SDS011;551;48.524;9.056;2023-02-28T15:03:19;11.83;;;9.27;;
505;SDS011;551;48.524;9.056;2023-02-28T15:05:51;10.67;;;8.27;;
505;SDS011;551;48.524;9.056;2023-02-28T15:08:36;9.87;;;8.63;;
505;SDS011;551;48.524;9.056;2023-02-28T15:11:03;13.37;;;8.90;;
505;SDS011;551;48.524;9.056;2023-02-28T15:16:29;10.67;;;8.83;;
505;SDS011;551;48.524;9.056;2023-02-28T15:21:31;13.30;;;9.40;;
505;SDS011;551;48.524;9.056;2023-02-28T15:26:35;10.77;;;8.03;;
505;SDS011;551;48.524;9.056;2023-02-28T15:29:10;9.73;;;7.73;;
505;SDS011;551;48.524;9.056;2023-02-28T15:31:41;11.10;;;8.53;;
505;SDS011;551;48.524;9.056;2023-02-28T15:34:17;9.83;;;7.93;;
505;SDS011;551;48.524;9.056;2023-02-28T15:36:45;15.17;;;9.40;;
505;SDS011;551;48.524;9.056;2023-02-28T15:39:25;14.40;;;9.03;;
505;SDS011;551;48.524;9.056;2023-02-28T15:41:52;10.03;;;8.13;;
505;SDS011;551;48.524;9.056;2023-02-28T15:44:34;10.87;;;9.00;;
505;SDS011;551;48.524;9.056;2023-02-28T15:47:11;14.10;;;8.77;;
505;SDS011;551;48.524;9.056;2023-02-28T15:49:51;12.00;;;8.20;;
505;SDS011;551;48.524;9.056;2023-02-28T15:52:20;12.43;;;9.40;;
505;SDS011;551;48.524;9.056;2023-02-28T15:54:57;10.10;;;8.50;;
505;SDS011;551;48.524;9.056;2023-02-28T15:57:24;10.23;;;8.20;;
505;SDS011;551;48.524;9.056;2023-02-28T15:59:54;13.10;;;8.90;;
505;SDS011;551;48.524;9.056;2023-02-28T16:02:35;10.63;;;8.10;;
505;SDS011;551;48.524;9.056;2023-02-28T16:07:34;12.10;;;8.40;;
505;SDS011;551;48.524;9.056;2023-02-28T16:10:00;12.73;;;9.00;;
505;SDS011;551;48.524;9.056;2023-02-28T16:12:27;10.43;;;9.23;;
505;SDS011;551;48.524;9.056;2023-02-28T16:14:57;11.83;;;8.70;;
505;SDS011;551;48.524;9.056;2023-02-28T16:17:28;15.37;;;9.07;;
505;SDS011;551;48.524;9.056;2023-02-28T16:19:57;10.50;;;8.60;;
505;SDS011;551;48.524;9.056;2023-02-28T16:22:24;10.77;;;8.40;;
505;SDS011;551;48.524;9.056;2023-02-28T16:24:49;12.23;;;8.30;;
505;SDS011;551;48.524;9.056;2023-02-28T16:27:16;15.37;;;9.67;;
505;SDS011;551;48.524;9.056;2023-02-28T16:29:45;9.93;;;7.90;;
505;SDS011;551;48.524;9.056;2023-02-28T16:32:12;12.17;;;8.40;;
505;SDS011;551;48.524;9.056;2023-02-28T16:34:40;15.53;;;8.50;;
505;SDS011;551;48.524;9.056;2023-02-28T16:37:11;12.10;;;7.67;;
505;SDS011;551;48.524;9.056;2023-02-28T16:39:38;11.97;;;8.83;;
505;SDS011;551;48.524;9.056;2023-02-28T16:42:04;9.93;;;8.87;;
505;SDS011;551;48.524;9.056;2023-02-28T16:46:56;12.80;;;9.27;;
505;SDS011;551;48.524;9.056;2023-02-28T16:49:24;10.40;;;8.40;;
505;SDS011;551;48.524;9.056;2023-02-28T16:51:49;10.90;;;8.60;;
505;SDS011;551;48.524;9.056;2023-02-28T16:54:16;15.30;;;8.93;;
505;SDS011;551;48.524;9.056;2023-02-28T16:56:43;10.97;;;7.93;;
505;SDS011;551;48.524;9.056;2023-02-28T16:59:10;12.73;;;9.53;;
505;SDS011;551;48.524;9.056;2023-02-28T17:01:37;13.77;;;9.37;;
505;SDS011;551;48.524;9.056;2023-02-28T17:04:02;11.87;;;8.37;;
505;SDS011;551;48.524;9.056;2023-02-28T17:06:28;9.97;;;8.40;;
505;SDS011;551;48.524;9.056;2023-02-28T17:08:55;13.93;;;8.07;;
505;SDS011;551;48.524;9.056;2023-02-28T17:11:22;16.07;;;9.40;;
505;SDS011;551;48.524;9.056;2023-02-28T17:13:48;12.57;;;8.80;;
505;SDS011;551;48.524;9.056;2023-02-28T17:18:54;19.17;;;8.50;;
505;SDS011;551;48.524;9.056;2023-02-28T17:21:22;14.57;;;8.53;;
505;SDS011;551;48.524;9.056;2023-02-28T17:23:47;14.63;;;8.73;;
505;SDS011;551;48.524;9.056;2023-02-28T17:26:14;11.63;;;8.40;;
505;SDS011;551;48.524;9.056;2023-02-28T17:28:42;13.00;;;8.90;;
505;SDS011;551;48.524;9.056;2023-02-28T17:31:08;16.90;;;9.33;;
505;SDS011;551;48.524;9.056;2023-02-28T17:33:34;14.93;;;8.87;;
505;SDS011;551;48.524;9.056;2023-02-28T17:35:59;16.30;;;9.60;;
505;SDS011;551;48.524;9.056;2023-02-28T17:38:25;13.90;;;9.10;;
505;SDS011;551;48.524;9.056;2023-02-28T17:40:50;13.77;;;9.50;;
505;SDS011;551;48.524;9.056;2023-02-28T17:43:21;13.77;;;9.27;;
505;SDS011;551;48.524;9.056;2023-02-28T17:45:50;15.53;;;8.97;;
505;SDS011;551;48.524;9.056;2023-02-28T17:48:16;13.10;;;9.50;;
505;SDS011;551;48.524;9.056;2023-02-28T17:50:42;14.63;;;9.03;;
505;SDS011;551;48.524;9.056;2023-02-28T17:53:07;15.77;;;9.67;;
505;SDS011;551;48.524;9.056;2023-02-28T17:55:33;13.00;;;9.33;;
505;SDS011;551;48.524;9.056;2023-02-28T17:57:59;16.13;;;9.13;;
505;SDS011;551;48.524;9.056;2023-02-28T18:00:25;16.93;;;9.37;;
505;SDS011;551;48.524;9.056;2023-02-28T18:02:50;12.73;;;9.10;;
505;SDS011;551;48.524;9.056;2023-02-28T18:05:16;14.03;;;10.07;;
505;SDS011;551;48.524;9.056;2023-02-28T18:07:42;17.50;;;10.00;;
505;SDS011;551;48.524;9.056;2023-02-28T18:10:13;15.17;;;9.90;;